Airfield :
LOGIN :

Register | Disclaimer

   EN    FR    IT 

 










Legend :    VFR   Marginal VFR   IFR   Intensive IFR   Very Intensive IFR
Visi :
Ceiling :
>= 8 km
>= 3000ft
5 to 8 km
1000 to 3000 ft
1500m to 5 km
500 to 1000 ft
800 to 1500m
200 to 500 ft
< 800m
< 200 ft
Symbols :   Thunderstorms  Fog  Heavy snow  Heavy precipitations  Wind > 20 kt
SIGMETs :     Misc.  Thunderstorms  Icing  Turbulence  Mountain Waves  Volcanic Ashes






- Airport Elevation : 587 ft
- IATA code : XCR


LFOK - Chalons Vatry

CURRENT METAR :
  • 150530Z AUTO 21008KT 9999 SCT004 BKN017 BKN064 13/13 Q1007 TEMPO 3000 RA BKN030CB

EXPIRED METARs :
  • 150500Z AUTO 20008KT 9999 -RA BKN004/// BKN017/// BKN038/// ///TCU 13/13 Q1007 TEMPO 3000 SHRA BKN008 BKN015TCU
  • 150430Z AUTO 18010KT 9999 -RA FEW004/// OVC084/// ///TCU 13/13 Q1007 TEMPO 3000 SHRA BKN008 BKN015TCU
  • 150400Z AUTO 18006KT 9999 ///CB 13/13 Q1007 TEMPO 3000 SHRA BKN008 BKN015TCU
  • 150330Z AUTO 18010KT 9000 RA ///TCU 13/13 Q1007 TEMPO 3000 SHRA BKN008 BKN015TCU
  • 150300Z AUTO 20009KT 7000 -RA ///CB 13/13 Q1007 TEMPO 3000 SHRA BKN008 BKN015TCU

TAF TAF LFOK
Valid from the 15 at 06:00 until the 16 at 06:00 UTC


150500Z 1506/1606 20009KT 9999 BKN030
TEMPO 1506/1512 3000 RA BKN006 BKN030TCU
PROB30
TEMPO 1506/1512 BKN030CB
BECMG 1600/1603 16013KT
TEMPO 1603/1606 3000 RADZ BKN006 OVC013



MET'MAP, your aeronautical weather chart ! - Copyright ORBIFLY December 2007 - Disclaimer

ORBIFLY MET'MAP TEAM :

Programming & Development : Alexandra Zaïnal
Concept & Development : Baudouin d'Aumeries
Co-Development & Prog : Marc-Olivier Méhu
Technical & hardware support : Manuel Goepfert

Contact : metmap@orbifly.com




SOURCES & CREDITS :

   NOAA